sensor_id;sensor_type;location;lat;lon;timestamp;pressure;altitude;pressure_sealevel;temperature
13219;BMP180;6674;49.152;11.918;2022-10-03T00:02:19;96658.22;;;10.68
13219;BMP180;6674;49.152;11.918;2022-10-03T00:04:59;96672.91;;;10.68
13219;BMP180;6674;49.152;11.918;2022-10-03T00:07:43;96675.06;;;10.64
13219;BMP180;6674;49.152;11.918;2022-10-03T00:10:21;96673.09;;;10.60
13219;BMP180;6674;49.152;11.918;2022-10-03T00:13:02;96684.78;;;10.56
13219;BMP180;6674;49.152;11.918;2022-10-03T00:15:38;96677.66;;;10.51
13219;BMP180;6674;49.152;11.918;2022-10-03T00:18:16;96684.41;;;10.52
13219;BMP180;6674;49.152;11.918;2022-10-03T00:20:58;96686.38;;;10.44
13219;BMP180;6674;49.152;11.918;2022-10-03T00:23:35;96689.16;;;10.49
13219;BMP180;6674;49.152;11.918;2022-10-03T00:26:07;96684.59;;;10.44
13219;BMP180;6674;49.152;11.918;2022-10-03T00:29:11;96681.22;;;10.44
13219;BMP180;6674;49.152;11.918;2022-10-03T00:31:50;96695.50;;;10.40
13219;BMP180;6674;49.152;11.918;2022-10-03T00:34:26;96696.31;;;10.40
13219;BMP180;6674;49.152;11.918;2022-10-03T00:37:07;96707.41;;;10.41
13219;BMP180;6674;49.152;11.918;2022-10-03T00:39:51;96707.41;;;10.41
13219;BMP180;6674;49.152;11.918;2022-10-03T00:42:44;96696.50;;;10.45
13219;BMP180;6674;49.152;11.918;2022-10-03T00:45:49;96692.53;;;10.49
13219;BMP180;6674;49.152;11.918;2022-10-03T00:48:43;96703.66;;;10.50
13219;BMP180;6674;49.152;11.918;2022-10-03T00:51:24;96702.06;;;10.55
13219;BMP180;6674;49.152;11.918;2022-10-03T00:54:02;96707.81;;;10.57
13219;BMP180;6674;49.152;11.918;2022-10-03T00:56:47;96707.44;;;10.54
13219;BMP180;6674;49.152;11.918;2022-10-03T00:59:33;96705.81;;;10.53
13219;BMP180;6674;49.152;11.918;2022-10-03T01:02:33;96718.34;;;10.56
13219;BMP180;6674;49.152;11.918;2022-10-03T01:05:11;96712.59;;;10.54
13219;BMP180;6674;49.152;11.918;2022-10-03T01:08:03;96723.09;;;10.52
13219;BMP180;6674;49.152;11.918;2022-10-03T01:10:38;96729.03;;;10.53
13219;BMP180;6674;49.152;11.918;2022-10-03T01:13:19;96743.53;;;10.54
13219;BMP180;6674;49.152;11.918;2022-10-03T01:15:55;96760.38;;;10.37
13219;BMP180;6674;49.152;11.918;2022-10-03T01:18:36;96753.03;;;10.34
13219;BMP180;6674;49.152;11.918;2022-10-03T01:21:11;96750.28;;;10.48
13219;BMP180;6674;49.152;11.918;2022-10-03T01:26:54;96740.78;;;10.62
13219;BMP180;6674;49.152;11.918;2022-10-03T01:29:33;96726.69;;;10.58
13219;BMP180;6674;49.152;11.918;2022-10-03T01:32:24;96727.09;;;10.55
13219;BMP180;6674;49.152;11.918;2022-10-03T01:35:01;96720.31;;;10.54
13219;BMP180;6674;49.152;11.918;2022-10-03T01:37:39;96727.06;;;10.48
13219;BMP180;6674;49.152;11.918;2022-10-03T01:40:17;96725.28;;;10.49
13219;BMP180;6674;49.152;11.918;2022-10-03T01:42:57;96727.06;;;10.42
13219;BMP180;6674;49.152;11.918;2022-10-03T01:45:30;96730.63;;;10.41
13219;BMP180;6674;49.152;11.918;2022-10-03T01:48:06;96733.00;;;10.36
13219;BMP180;6674;49.152;11.918;2022-10-03T01:50:41;96748.25;;;10.31
13219;BMP180;6674;49.152;11.918;2022-10-03T01:53:15;96738.69;;;10.25
13219;BMP180;6674;49.152;11.918;2022-10-03T01:55:55;96739.31;;;10.27
13219;BMP180;6674;49.152;11.918;2022-10-03T01:58:28;96739.72;;;10.31
13219;BMP180;6674;49.152;11.918;2022-10-03T02:01:03;96742.72;;;10.34
13219;BMP180;6674;49.152;11.918;2022-10-03T02:03:36;96744.69;;;10.26
13219;BMP180;6674;49.152;11.918;2022-10-03T02:06:08;96749.03;;;10.25
13219;BMP180;6674;49.152;11.918;2022-10-03T02:08:46;96745.84;;;10.23
13219;BMP180;6674;49.152;11.918;2022-10-03T02:11:30;96748.41;;;10.23
13219;BMP180;6674;49.152;11.918;2022-10-03T02:14:00;96756.94;;;10.17
13219;BMP180;6674;49.152;11.918;2022-10-03T02:16:37;96770.25;;;10.21
13219;BMP180;6674;49.152;11.918;2022-10-03T02:19:14;96758.94;;;10.22
13219;BMP180;6674;49.152;11.918;2022-10-03T02:21:47;96757.75;;;10.18
13219;BMP180;6674;49.152;11.918;2022-10-03T02:24:23;96764.28;;;10.20
13219;BMP180;6674;49.152;11.918;2022-10-03T02:27:24;96761.69;;;10.20
13219;BMP180;6674;49.152;11.918;2022-10-03T02:30:18;96763.50;;;10.26
13219;BMP180;6674;49.152;11.918;2022-10-03T02:36:29;96762.91;;;10.24
13219;BMP180;6674;49.152;11.918;2022-10-03T02:39:35;96765.66;;;10.16
13219;BMP180;6674;49.152;11.918;2022-10-03T02:42:27;96755.38;;;10.23
13219;BMP180;6674;49.152;11.918;2022-10-03T02:48:38;96765.25;;;10.13
13219;BMP180;6674;49.152;11.918;2022-10-03T02:51:30;96769.63;;;10.12
13219;BMP180;6674;49.152;11.918;2022-10-03T02:54:18;96774.16;;;10.10
13219;BMP180;6674;49.152;11.918;2022-10-03T02:59:59;96781.66;;;10.05
13219;BMP180;6674;49.152;11.918;2022-10-03T03:03:04;96785.44;;;10.03
13219;BMP180;6674;49.152;11.918;2022-10-03T03:06:05;96786.63;;;10.07
13219;BMP180;6674;49.152;11.918;2022-10-03T03:08:54;96792.59;;;10.07
13219;BMP180;6674;49.152;11.918;2022-10-03T03:14:40;96798.91;;;9.98
13219;BMP180;6674;49.152;11.918;2022-10-03T03:17:21;96804.84;;;9.99
13219;BMP180;6674;49.152;11.918;2022-10-03T03:20:10;96802.88;;;10.01
13219;BMP180;6674;49.152;11.918;2022-10-03T03:23:03;96815.16;;;9.99
13219;BMP180;6674;49.152;11.918;2022-10-03T03:25:50;96811.81;;;10.05
13219;BMP180;6674;49.152;11.918;2022-10-03T03:28:28;96814.81;;;10.08
13219;BMP180;6674;49.152;11.918;2022-10-03T03:31:03;96817.56;;;10.07
13219;BMP180;6674;49.152;11.918;2022-10-03T03:33:41;96826.56;;;10.17
13219;BMP180;6674;49.152;11.918;2022-10-03T03:36:14;96824.97;;;10.16
13219;BMP180;6674;49.152;11.918;2022-10-03T03:38:50;96819.66;;;10.24
13219;BMP180;6674;49.152;11.918;2022-10-03T03:41:44;96830.56;;;10.26
13219;BMP180;6674;49.152;11.918;2022-10-03T03:44:34;96823.19;;;10.23
13219;BMP180;6674;49.152;11.918;2022-10-03T03:47:11;96838.47;;;10.25
13219;BMP180;6674;49.152;11.918;2022-10-03T03:50:05;96835.72;;;10.26
13219;BMP180;6674;49.152;11.918;2022-10-03T03:52:46;96833.50;;;10.23
13219;BMP180;6674;49.152;11.918;2022-10-03T03:55:34;96821.44;;;10.30
13219;BMP180;6674;49.152;11.918;2022-10-03T03:58:22;96834.31;;;10.30
13219;BMP180;6674;49.152;11.918;2022-10-03T04:01:18;96833.56;;;10.36
13219;BMP180;6674;49.152;11.918;2022-10-03T04:03:59;96831.38;;;10.33
13219;BMP180;6674;49.152;11.918;2022-10-03T04:06:43;96832.19;;;10.33
13219;BMP180;6674;49.152;11.918;2022-10-03T04:09:37;96830.41;;;10.40
13219;BMP180;6674;49.152;11.918;2022-10-03T04:12:13;96828.03;;;10.39
13219;BMP180;6674;49.152;11.918;2022-10-03T04:17:47;96835.19;;;10.43
13219;BMP180;6674;49.152;11.918;2022-10-03T04:20:50;96832.22;;;10.40
13219;BMP180;6674;49.152;11.918;2022-10-03T04:23:32;96829.59;;;10.33
13219;BMP180;6674;49.152;11.918;2022-10-03T04:26:16;96833.94;;;10.33
13219;BMP180;6674;49.152;11.918;2022-10-03T04:31:44;96841.34;;;10.42
13219;BMP180;6674;49.152;11.918;2022-10-03T04:34:24;96837.59;;;10.45
13219;BMP180;6674;49.152;11.918;2022-10-03T04:37:20;96835.19;;;10.43
13219;BMP180;6674;49.152;11.918;2022-10-03T04:39:58;96832.81;;;10.42
13219;BMP180;6674;49.152;11.918;2022-10-03T04:42:37;96838.38;;;10.45
13219;BMP180;6674;49.152;11.918;2022-10-03T04:45:23;96839.97;;;10.46
13219;BMP180;6674;49.152;11.918;2022-10-03T04:47:57;96835.97;;;10.44
13219;BMP180;6674;49.152;11.918;2022-10-03T04:50:32;96840.16;;;10.45
13219;BMP180;6674;49.152;11.918;2022-10-03T04:53:16;96839.75;;;10.48
13219;BMP180;6674;49.152;11.918;2022-10-03T04:55:46;96833.63;;;10.49
13219;BMP180;6674;49.152;11.918;2022-10-03T04:58:25;96839.38;;;10.51
13219;BMP180;6674;49.152;11.918;2022-10-03T05:01:04;96839.38;;;10.51
13219;BMP180;6674;49.152;11.918;2022-10-03T05:03:41;96834.63;;;10.54
13219;BMP180;6674;49.152;11.918;2022-10-03T05:06:25;96835.66;;;10.60
13219;BMP180;6674;49.152;11.918;2022-10-03T05:08:56;96825.13;;;10.55
13219;BMP180;6674;49.152;11.918;2022-10-03T05:11:36;96828.28;;;10.57
13219;BMP180;6674;49.152;11.918;2022-10-03T05:14:09;96830.47;;;10.53
13219;BMP180;6674;49.152;11.918;2022-10-03T05:16:41;96834.81;;;10.53
13219;BMP180;6674;49.152;11.918;2022-10-03T05:19:36;96842.97;;;10.56
13219;BMP180;6674;49.152;11.918;2022-10-03T05:22:10;96844.75;;;10.56
13219;BMP180;6674;49.152;11.918;2022-10-03T05:24:47;96839.59;;;10.56
13219;BMP180;6674;49.152;11.918;2022-10-03T05:27:22;96846.53;;;10.55
13219;BMP180;6674;49.152;11.918;2022-10-03T05:29:56;96844.75;;;10.56
13219;BMP180;6674;49.152;11.918;2022-10-03T05:32:29;96853.13;;;10.58
13219;BMP180;6674;49.152;11.918;2022-10-03T05:35:14;96847.72;;;10.59
13219;BMP180;6674;49.152;11.918;2022-10-03T05:37:57;96854.88;;;10.57
13219;BMP180;6674;49.152;11.918;2022-10-03T05:40:27;96852.88;;;10.53
13219;BMP180;6674;49.152;11.918;2022-10-03T05:43:01;96849.31;;;10.54
13219;BMP180;6674;49.152;11.918;2022-10-03T05:45:45;96849.69;;;10.51
13219;BMP180;6674;49.152;11.918;2022-10-03T05:48:24;96855.84;;;10.50
13219;BMP180;6674;49.152;11.918;2022-10-03T05:51:18;96864.19;;;10.52
13219;BMP180;6674;49.152;11.918;2022-10-03T05:54:40;96861.00;;;10.50
13219;BMP180;6674;49.152;11.918;2022-10-03T05:57:34;96864.38;;;10.50
13219;BMP180;6674;49.152;11.918;2022-10-03T06:00:19;96866.00;;;10.51
13219;BMP180;6674;49.152;11.918;2022-10-03T06:03:02;96859.22;;;10.50
13219;BMP180;6674;49.152;11.918;2022-10-03T06:05:44;96872.53;;;10.54
13219;BMP180;6674;49.152;11.918;2022-10-03T06:11:30;96870.13;;;10.52
13219;BMP180;6674;49.152;11.918;2022-10-03T06:14:41;96874.72;;;10.57
13219;BMP180;6674;49.152;11.918;2022-10-03T06:17:25;96884.06;;;10.58
13219;BMP180;6674;49.152;11.918;2022-10-03T06:19:57;96874.53;;;10.58
13219;BMP180;6674;49.152;11.918;2022-10-03T06:26:09;96890.81;;;10.65
13219;BMP180;6674;49.152;11.918;2022-10-03T06:29:07;96877.72;;;10.60
13219;BMP180;6674;49.152;11.918;2022-10-03T06:32:14;96884.44;;;10.55
13219;BMP180;6674;49.152;11.918;2022-10-03T06:35:28;96892.97;;;10.55
13219;BMP180;6674;49.152;11.918;2022-10-03T06:38:32;96899.13;;;10.61
13219;BMP180;6674;49.152;11.918;2022-10-03T06:41:27;96896.56;;;10.61
13219;BMP180;6674;49.152;11.918;2022-10-03T06:44:20;96901.13;;;10.59
13219;BMP180;6674;49.152;11.918;2022-10-03T06:47:08;96900.75;;;10.62
13219;BMP180;6674;49.152;11.918;2022-10-03T06:50:12;96917.38;;;10.59
13219;BMP180;6674;49.152;11.918;2022-10-03T06:53:13;96920.72;;;10.47
13219;BMP180;6674;49.152;11.918;2022-10-03T06:56:03;96916.00;;;10.57
13219;BMP180;6674;49.152;11.918;2022-10-03T07:02:04;96922.22;;;10.75
13219;BMP180;6674;49.152;11.918;2022-10-03T07:05:16;96906.34;;;10.78
13219;BMP180;6674;49.152;11.918;2022-10-03T07:08:07;96913.09;;;10.73
13219;BMP180;6674;49.152;11.918;2022-10-03T07:10:59;96914.69;;;10.80
13219;BMP180;6674;49.152;11.918;2022-10-03T07:14:08;96917.31;;;10.86
13219;BMP180;6674;49.152;11.918;2022-10-03T07:17:15;96913.16;;;10.92
13219;BMP180;6674;49.152;11.918;2022-10-03T07:20:03;96916.91;;;10.89
13219;BMP180;6674;49.152;11.918;2022-10-03T07:29:06;96928.47;;;11.06
13219;BMP180;6674;49.152;11.918;2022-10-03T07:31:46;96926.09;;;11.05
13219;BMP180;6674;49.152;11.918;2022-10-03T07:34:38;96935.84;;;11.16
13219;BMP180;6674;49.152;11.918;2022-10-03T07:37:22;96938.25;;;11.17
13219;BMP180;6674;49.152;11.918;2022-10-03T07:40:39;96935.06;;;11.09
13219;BMP180;6674;49.152;11.918;2022-10-03T07:43:28;96941.19;;;11.08
13219;BMP180;6674;49.152;11.918;2022-10-03T07:49:06;96947.78;;;11.17
13219;BMP180;6674;49.152;11.918;2022-10-03T07:51:50;96949.38;;;11.24
13219;BMP180;6674;49.152;11.918;2022-10-03T07:54:34;96940.25;;;11.28
13219;BMP180;6674;49.152;11.918;2022-10-03T07:57:32;96945.66;;;11.39
13219;BMP180;6674;49.152;11.918;2022-10-03T08:00:18;96938.84;;;11.25
13219;BMP180;6674;49.152;11.918;2022-10-03T08:06:00;96927.72;;;11.25
13219;BMP180;6674;49.152;11.918;2022-10-03T08:08:54;96936.50;;;11.37
13219;BMP180;6674;49.152;11.918;2022-10-03T08:11:32;96934.34;;;11.47
13219;BMP180;6674;49.152;11.918;2022-10-03T08:14:15;96935.56;;;11.51
13219;BMP180;6674;49.152;11.918;2022-10-03T08:17:01;96927.81;;;11.51
13219;BMP180;6674;49.152;11.918;2022-10-03T08:19:49;96935.97;;;11.67
13219;BMP180;6674;49.152;11.918;2022-10-03T08:22:35;96919.25;;;11.57
13219;BMP180;6674;49.152;11.918;2022-10-03T08:25:19;96924.22;;;11.77
13219;BMP180;6674;49.152;11.918;2022-10-03T08:31:30;96904.94;;;11.73
13219;BMP180;6674;49.152;11.918;2022-10-03T08:34:22;96912.06;;;11.97
13219;BMP180;6674;49.152;11.918;2022-10-03T08:37:07;96918.66;;;12.06
13219;BMP180;6674;49.152;11.918;2022-10-03T08:39:48;96922.00;;;12.19
13219;BMP180;6674;49.152;11.918;2022-10-03T08:45:54;96907.66;;;12.30
13219;BMP180;6674;49.152;11.918;2022-10-03T08:48:50;96913.00;;;12.48
13219;BMP180;6674;49.152;11.918;2022-10-03T08:51:44;96913.56;;;12.56
13219;BMP180;6674;49.152;11.918;2022-10-03T08:54:28;96920.09;;;12.58
13219;BMP180;6674;49.152;11.918;2022-10-03T08:57:19;96906.31;;;12.71
13219;BMP180;6674;49.152;11.918;2022-10-03T09:00:13;96907.97;;;12.59
13219;BMP180;6674;49.152;11.918;2022-10-03T09:03:00;96907.88;;;12.85
13219;BMP180;6674;49.152;11.918;2022-10-03T09:08:54;96903.69;;;12.90
13219;BMP180;6674;49.152;11.918;2022-10-03T09:11:52;96904.19;;;13.05
13219;BMP180;6674;49.152;11.918;2022-10-03T09:14:33;96904.38;;;13.10
13219;BMP180;6674;49.152;11.918;2022-10-03T09:17:15;96897.91;;;13.19
13219;BMP180;6674;49.152;11.918;2022-10-03T09:20:15;96896.66;;;12.97
13219;BMP180;6674;49.152;11.918;2022-10-03T09:22:59;96895.72;;;13.22
13219;BMP180;6674;49.152;11.918;2022-10-03T09:25:43;96908.44;;;13.54
13219;BMP180;6674;49.152;11.918;2022-10-03T09:31:20;96897.44;;;12.97
13219;BMP180;6674;49.152;11.918;2022-10-03T09:43:30;96907.88;;;12.78
13219;BMP180;6674;49.152;11.918;2022-10-03T09:46:18;96908.66;;;12.92
13219;BMP180;6674;49.152;11.918;2022-10-03T09:52:05;96908.19;;;13.01
13219;BMP180;6674;49.152;11.918;2022-10-03T09:57:55;96894.00;;;13.40
13219;BMP180;6674;49.152;11.918;2022-10-03T10:00:37;96901.91;;;13.21
13219;BMP180;6674;49.152;11.918;2022-10-03T10:03:40;96898.84;;;13.31
13219;BMP180;6674;49.152;11.918;2022-10-03T10:06:26;96906.75;;;13.42
13219;BMP180;6674;49.152;11.918;2022-10-03T10:15:05;96901.75;;;13.71
13219;BMP180;6674;49.152;11.918;2022-10-03T10:23:48;96901.19;;;13.38
13219;BMP180;6674;49.152;11.918;2022-10-03T10:26:44;96899.97;;;13.41
13219;BMP180;6674;49.152;11.918;2022-10-03T10:29:36;96895.41;;;13.36
13219;BMP180;6674;49.152;11.918;2022-10-03T10:35:28;96902.03;;;13.33
13219;BMP180;6674;49.152;11.918;2022-10-03T10:38:33;96901.63;;;12.98
13219;BMP180;6674;49.152;11.918;2022-10-03T10:47:18;96895.03;;;13.02
13219;BMP180;6674;49.152;11.918;2022-10-03T10:50:16;96904.31;;;12.73
13219;BMP180;6674;49.152;11.918;2022-10-03T10:56:19;96907.50;;;12.68
13219;BMP180;6674;49.152;11.918;2022-10-03T11:02:20;96906.88;;;12.86
13219;BMP180;6674;49.152;11.918;2022-10-03T11:09:02;96907.25;;;12.89
13219;BMP180;6674;49.152;11.918;2022-10-03T11:12:17;96905.00;;;12.99
13219;BMP180;6674;49.152;11.918;2022-10-03T11:18:37;96906.94;;;13.10
13219;BMP180;6674;49.152;11.918;2022-10-03T11:30:55;96903.19;;;13.36
13219;BMP180;6674;49.152;11.918;2022-10-03T11:36:50;96904.69;;;13.20
13219;BMP180;6674;49.152;11.918;2022-10-03T11:39:33;96901.97;;;13.39
13219;BMP180;6674;49.152;11.918;2022-10-03T11:42:12;96900.28;;;13.51
13219;BMP180;6674;49.152;11.918;2022-10-03T11:44:51;96908.38;;;13.36
13219;BMP180;6674;49.152;11.918;2022-10-03T11:47:31;96907.81;;;13.59
13219;BMP180;6674;49.152;11.918;2022-10-03T11:50:29;96894.47;;;13.31
13219;BMP180;6674;49.152;11.918;2022-10-03T11:53:24;96906.47;;;13.56
13219;BMP180;6674;49.152;11.918;2022-10-03T11:56:04;96886.88;;;13.60
13219;BMP180;6674;49.152;11.918;2022-10-03T11:58:53;96888.31;;;13.56
13219;BMP180;6674;49.152;11.918;2022-10-03T12:01:26;96893.25;;;13.82
13219;BMP180;6674;49.152;11.918;2022-10-03T12:04:01;96890.44;;;13.83
13219;BMP180;6674;49.152;11.918;2022-10-03T12:06:48;96893.75;;;13.73
13219;BMP180;6674;49.152;11.918;2022-10-03T12:09:43;96889.16;;;13.75
13219;BMP180;6674;49.152;11.918;2022-10-03T12:12:15;96891.16;;;13.18
13219;BMP180;6674;49.152;11.918;2022-10-03T12:14:48;96896.09;;;13.26
13219;BMP180;6674;49.152;11.918;2022-10-03T12:17:24;96894.41;;;13.37
13219;BMP180;6674;49.152;11.918;2022-10-03T12:20:00;96893.34;;;13.51
13219;BMP180;6674;49.152;11.918;2022-10-03T12:22:41;96895.38;;;13.12
13219;BMP180;6674;49.152;11.918;2022-10-03T12:25:20;96887.78;;;13.41
13219;BMP180;6674;49.152;11.918;2022-10-03T12:27:58;96889.19;;;13.68
13219;BMP180;6674;49.152;11.918;2022-10-03T12:30:33;96889.41;;;13.91
13219;BMP180;6674;49.152;11.918;2022-10-03T12:33:18;96884.06;;;13.86
13219;BMP180;6674;49.152;11.918;2022-10-03T12:35:53;96883.47;;;13.84
13219;BMP180;6674;49.152;11.918;2022-10-03T12:38:32;96884.47;;;13.83
13219;BMP180;6674;49.152;11.918;2022-10-03T12:41:13;96881.16;;;13.76
13219;BMP180;6674;49.152;11.918;2022-10-03T12:43:52;96875.88;;;13.65
13219;BMP180;6674;49.152;11.918;2022-10-03T12:46:29;96876.34;;;13.55
13219;BMP180;6674;49.152;11.918;2022-10-03T12:49:03;96884.69;;;13.57
13219;BMP180;6674;49.152;11.918;2022-10-03T12:51:50;96877.59;;;13.46
13219;BMP180;6674;49.152;11.918;2022-10-03T12:54:32;96879.94;;;13.54
13219;BMP180;6674;49.152;11.918;2022-10-03T12:57:23;96875.28;;;13.38
13219;BMP180;6674;49.152;11.918;2022-10-03T12:59:59;96877.53;;;13.53
13219;BMP180;6674;49.152;11.918;2022-10-03T13:02:32;96874.63;;;13.67
13219;BMP180;6674;49.152;11.918;2022-10-03T13:05:32;96876.03;;;13.45
13219;BMP180;6674;49.152;11.918;2022-10-03T13:08:21;96881.53;;;13.55
13219;BMP180;6674;49.152;11.918;2022-10-03T13:10:55;96883.13;;;13.56
13219;BMP180;6674;49.152;11.918;2022-10-03T13:13:43;96886.66;;;13.62
13219;BMP180;6674;49.152;11.918;2022-10-03T13:16:22;96878.09;;;13.61
13219;BMP180;6674;49.152;11.918;2022-10-03T13:18:57;96868.66;;;13.67
13219;BMP180;6674;49.152;11.918;2022-10-03T13:21:37;96869.72;;;13.59
13219;BMP180;6674;49.152;11.918;2022-10-03T13:24:13;96868.19;;;13.76
13219;BMP180;6674;49.152;11.918;2022-10-03T13:26:52;96869.41;;;13.74
13219;BMP180;6674;49.152;11.918;2022-10-03T13:29:24;96854.91;;;13.66
13219;BMP180;6674;49.152;11.918;2022-10-03T13:32:05;96866.59;;;13.75
13219;BMP180;6674;49.152;11.918;2022-10-03T13:34:39;96853.41;;;13.77
13219;BMP180;6674;49.152;11.918;2022-10-03T13:37:13;96861.34;;;13.81
13219;BMP180;6674;49.152;11.918;2022-10-03T13:39:45;96869.97;;;13.76
13219;BMP180;6674;49.152;11.918;2022-10-03T13:42:17;96862.25;;;13.69
13219;BMP180;6674;49.152;11.918;2022-10-03T13:44:49;96859.03;;;13.74
13219;BMP180;6674;49.152;11.918;2022-10-03T13:47:26;96854.34;;;13.82
13219;BMP180;6674;49.152;11.918;2022-10-03T13:49:56;96848.03;;;13.78
13219;BMP180;6674;49.152;11.918;2022-10-03T13:52:35;96848.88;;;13.72
13219;BMP180;6674;49.152;11.918;2022-10-03T13:55:22;96849.00;;;13.77
13219;BMP180;6674;49.152;11.918;2022-10-03T13:58:09;96846.28;;;13.72
13219;BMP180;6674;49.152;11.918;2022-10-03T14:00:50;96844.91;;;13.45
13219;BMP180;6674;49.152;11.918;2022-10-03T14:03:23;96848.19;;;13.59
13219;BMP180;6674;49.152;11.918;2022-10-03T14:05:57;96843.94;;;13.64
13219;BMP180;6674;49.152;11.918;2022-10-03T14:08:50;96848.56;;;13.62
13219;BMP180;6674;49.152;11.918;2022-10-03T14:11:23;96845.13;;;13.68
13219;BMP180;6674;49.152;11.918;2022-10-03T14:14:03;96843.69;;;13.72
13219;BMP180;6674;49.152;11.918;2022-10-03T14:16:39;96843.69;;;13.72
13219;BMP180;6674;49.152;11.918;2022-10-03T14:19:15;96845.00;;;13.81
13219;BMP180;6674;49.152;11.918;2022-10-03T14:22:16;96840.94;;;13.67
13219;BMP180;6674;49.152;11.918;2022-10-03T14:24:58;96849.31;;;13.87
13219;BMP180;6674;49.152;11.918;2022-10-03T14:27:36;96847.53;;;14.12
13219;BMP180;6674;49.152;11.918;2022-10-03T14:30:10;96848.09;;;14.31
13219;BMP180;6674;49.152;11.918;2022-10-03T14:32:46;96837.28;;;14.34
13219;BMP180;6674;49.152;11.918;2022-10-03T14:35:27;96835.78;;;14.74
13219;BMP180;6674;49.152;11.918;2022-10-03T14:38:08;96829.00;;;14.73
13219;BMP180;6674;49.152;11.918;2022-10-03T14:40:41;96841.06;;;14.97
13219;BMP180;6674;49.152;11.918;2022-10-03T14:43:29;96833.09;;;15.09
13219;BMP180;6674;49.152;11.918;2022-10-03T14:46:00;96830.69;;;15.08
13219;BMP180;6674;49.152;11.918;2022-10-03T14:48:33;96839.59;;;15.18
13219;BMP180;6674;49.152;11.918;2022-10-03T14:51:14;96833.97;;;15.04
13219;BMP180;6674;49.152;11.918;2022-10-03T14:53:46;96842.78;;;15.03
13219;BMP180;6674;49.152;11.918;2022-10-03T14:56:18;96830.34;;;15.05
13219;BMP180;6674;49.152;11.918;2022-10-03T14:58:49;96828.25;;;14.84
13219;BMP180;6674;49.152;11.918;2022-10-03T15:01:18;96834.69;;;14.81
13219;BMP180;6674;49.152;11.918;2022-10-03T15:03:55;96827.25;;;14.85
13219;BMP180;6674;49.152;11.918;2022-10-03T15:06:35;96830.28;;;14.82
13219;BMP180;6674;49.152;11.918;2022-10-03T15:09:09;96830.75;;;14.90
13219;BMP180;6674;49.152;11.918;2022-10-03T15:11:44;96836.69;;;14.79
13219;BMP180;6674;49.152;11.918;2022-10-03T15:14:13;96830.25;;;14.70
13219;BMP180;6674;49.152;11.918;2022-10-03T15:16:44;96829.78;;;15.03
13219;BMP180;6674;49.152;11.918;2022-10-03T15:19:16;96827.47;;;14.83
13219;BMP180;6674;49.152;11.918;2022-10-03T15:21:46;96827.44;;;15.12
13219;BMP180;6674;49.152;11.918;2022-10-03T15:24:19;96814.81;;;15.16
13219;BMP180;6674;49.152;11.918;2022-10-03T15:26:49;96818.81;;;15.18
13219;BMP180;6674;49.152;11.918;2022-10-03T15:29:19;96818.44;;;15.26
13219;BMP180;6674;49.152;11.918;2022-10-03T15:31:47;96817.47;;;15.50
13219;BMP180;6674;49.152;11.918;2022-10-03T15:34:18;96814.66;;;15.52
13219;BMP180;6674;49.152;11.918;2022-10-03T15:36:48;96813.75;;;15.46
13219;BMP180;6674;49.152;11.918;2022-10-03T15:39:19;96807.53;;;15.58
13219;BMP180;6674;49.152;11.918;2022-10-03T15:41:51;96810.56;;;15.67
13219;BMP180;6674;49.152;11.918;2022-10-03T15:44:22;96819.19;;;15.79
13219;BMP180;6674;49.152;11.918;2022-10-03T15:46:56;96814.44;;;15.87
13219;BMP180;6674;49.152;11.918;2022-10-03T15:49:31;96817.16;;;15.81
13219;BMP180;6674;49.152;11.918;2022-10-03T15:52:07;96811.16;;;15.46
13219;BMP180;6674;49.152;11.918;2022-10-03T15:54:36;96815.22;;;15.76
13219;BMP180;6674;49.152;11.918;2022-10-03T15:57:05;96813.97;;;16.01
13219;BMP180;6674;49.152;11.918;2022-10-03T15:59:34;96814.22;;;15.89
13219;BMP180;6674;49.152;11.918;2022-10-03T16:02:07;96812.06;;;15.97
13219;BMP180;6674;49.152;11.918;2022-10-03T16:04:39;96808.53;;;15.23
13219;BMP180;6674;49.152;11.918;2022-10-03T16:07:10;96804.22;;;15.29
13219;BMP180;6674;49.152;11.918;2022-10-03T16:09:47;96810.81;;;15.13
13219;BMP180;6674;49.152;11.918;2022-10-03T16:12:44;96805.47;;;14.97
13219;BMP180;6674;49.152;11.918;2022-10-03T16:15:19;96807.66;;;14.71
13219;BMP180;6674;49.152;11.918;2022-10-03T16:17:50;96809.63;;;14.58
13219;BMP180;6674;49.152;11.918;2022-10-03T16:20:21;96811.31;;;14.34
13219;BMP180;6674;49.152;11.918;2022-10-03T16:22:51;96807.78;;;14.29
13219;BMP180;6674;49.152;11.918;2022-10-03T16:25:21;96815.06;;;14.21
13219;BMP180;6674;49.152;11.918;2022-10-03T16:27:53;96822.44;;;14.06
13219;BMP180;6674;49.152;11.918;2022-10-03T16:30:25;96813.81;;;13.87
13219;BMP180;6674;49.152;11.918;2022-10-03T16:33:01;96823.03;;;13.83
13219;BMP180;6674;49.152;11.918;2022-10-03T16:35:35;96822.34;;;13.70
13219;BMP180;6674;49.152;11.918;2022-10-03T16:38:07;96821.44;;;13.65
13219;BMP180;6674;49.152;11.918;2022-10-03T16:40:49;96814.44;;;13.65
13219;BMP180;6674;49.152;11.918;2022-10-03T16:43:18;96816.66;;;13.62
13219;BMP180;6674;49.152;11.918;2022-10-03T16:45:46;96819.09;;;13.57
13219;BMP180;6674;49.152;11.918;2022-10-03T16:48:19;96830.88;;;13.53
13219;BMP180;6674;49.152;11.918;2022-10-03T16:51:14;96835.81;;;13.36
13219;BMP180;6674;49.152;11.918;2022-10-03T16:53:43;96829.88;;;13.30
13219;BMP180;6674;49.152;11.918;2022-10-03T16:56:15;96833.09;;;13.25
13219;BMP180;6674;49.152;11.918;2022-10-03T16:58:46;96821.63;;;13.15
13219;BMP180;6674;49.152;11.918;2022-10-03T17:01:26;96823.06;;;13.11
13219;BMP180;6674;49.152;11.918;2022-10-03T17:04:10;96836.69;;;13.00
13219;BMP180;6674;49.152;11.918;2022-10-03T17:06:40;96826.16;;;12.95
13219;BMP180;6674;49.152;11.918;2022-10-03T17:09:19;96821.81;;;12.89
13219;BMP180;6674;49.152;11.918;2022-10-03T17:11:51;96820.84;;;12.84
13219;BMP180;6674;49.152;11.918;2022-10-03T17:14:19;96829.41;;;12.78
13219;BMP180;6674;49.152;11.918;2022-10-03T17:16:50;96824.84;;;12.73
13219;BMP180;6674;49.152;11.918;2022-10-03T17:19:26;96831.84;;;12.66
13219;BMP180;6674;49.152;11.918;2022-10-03T17:22:04;96831.69;;;12.61
13219;BMP180;6674;49.152;11.918;2022-10-03T17:24:41;96840.44;;;12.60
13219;BMP180;6674;49.152;11.918;2022-10-03T17:27:16;96841.88;;;12.50
13219;BMP180;6674;49.152;11.918;2022-10-03T17:29:49;96838.56;;;12.37
13219;BMP180;6674;49.152;11.918;2022-10-03T17:32:22;96840.41;;;12.30
13219;BMP180;6674;49.152;11.918;2022-10-03T17:34:56;96848.38;;;12.22